createdAt,value
2022-08-12T00:04:59.169Z,2.33
2022-08-12T00:10:22.488Z,2.35
2022-08-12T00:15:47.308Z,2.50
2022-08-12T00:21:08.727Z,1.90
2022-08-12T00:26:34.503Z,2.22
2022-08-12T00:31:58.188Z,2.03
2022-08-12T00:37:22.865Z,1.77
2022-08-12T00:42:28.425Z,2.25
2022-08-12T00:47:34.415Z,1.95
2022-08-12T00:52:38.244Z,1.90
2022-08-12T00:57:47.895Z,2.50
2022-08-12T01:02:58.073Z,1.90
2022-08-12T01:08:19.686Z,1.70
2022-08-12T01:13:26.780Z,1.85
2022-08-12T01:18:32.635Z,1.83
2022-08-12T01:24:30.083Z,1.70
2022-08-12T01:29:36.658Z,1.90
2022-08-12T01:34:52.147Z,2.17
2022-08-12T01:40:33.285Z,2.05
2022-08-12T01:45:29.884Z,1.92
2022-08-12T01:51:00.290Z,2.05
2022-08-12T01:56:06.291Z,1.90
2022-08-12T02:01:15.568Z,2.10
2022-08-12T02:06:50.742Z,2.28
2022-08-12T02:12:11.061Z,2.22
2022-08-12T02:17:55.421Z,1.87
2022-08-12T02:23:04.825Z,2.50
2022-08-12T02:28:08.869Z,2.15
2022-08-12T02:33:14.963Z,1.95
2022-08-12T02:38:21.709Z,2.15
2022-08-12T02:43:32.069Z,2.22
2022-08-12T02:48:45.706Z,2.20
2022-08-12T02:54:05.597Z,2.05
2022-08-12T02:59:15.131Z,2.33
2022-08-12T03:04:29.947Z,2.50
2022-08-12T03:09:51.477Z,2.30
2022-08-12T03:15:05.916Z,2.40
2022-08-12T03:20:17.373Z,2.95
2022-08-12T03:25:26.661Z,2.47
2022-08-12T03:30:36.574Z,2.65
2022-08-12T03:35:48.764Z,2.50
2022-08-12T03:41:24.166Z,2.50
2022-08-12T03:46:51.169Z,2.65
2022-08-12T03:52:14.012Z,2.30
2022-08-12T03:57:35.449Z,2.47
2022-08-12T04:02:47.101Z,3.00
2022-08-12T04:07:58.356Z,2.90
2022-08-12T04:13:16.650Z,3.25
2022-08-12T04:18:22.606Z,3.12
2022-08-12T04:23:28.705Z,2.83
2022-08-12T04:28:32.736Z,2.67
2022-08-12T04:33:37.615Z,3.17
2022-08-12T04:38:43.876Z,3.15
2022-08-12T04:44:01.480Z,3.35
2022-08-12T04:49:06.408Z,3.33
2022-08-12T04:54:11.478Z,3.60
2022-08-12T04:59:17.125Z,3.35
2022-08-12T05:04:24.717Z,3.50
2022-08-12T05:10:00.402Z,3.97
2022-08-12T05:14:53.574Z,4.00
2022-08-12T05:19:57.954Z,3.97
2022-08-12T05:25:03.281Z,3.97
2022-08-12T05:30:10.423Z,3.20
2022-08-12T05:35:15.730Z,4.20
2022-08-12T05:40:21.032Z,4.60
2022-08-12T05:45:25.143Z,4.30
2022-08-12T05:50:29.069Z,5.70
2022-08-12T05:55:34.851Z,4.43
2022-08-12T06:00:38.853Z,5.18
2022-08-12T06:05:55.144Z,6.45
2022-08-12T06:11:01.751Z,5.18
2022-08-12T06:16:07.298Z,5.47
2022-08-12T06:21:12.983Z,6.07
2022-08-12T06:26:20.344Z,5.55
2022-08-12T06:31:26.836Z,5.80
2022-08-12T06:36:33.513Z,6.15
2022-08-12T06:42:10.770Z,5.57
2022-08-12T06:47:22.272Z,5.03
2022-08-12T06:52:26.318Z,4.72
2022-08-12T06:58:04.451Z,5.25
2022-08-12T07:02:55.961Z,6.20
2022-08-12T07:08:10.304Z,5.85
2022-08-12T07:13:15.580Z,5.30
2022-08-12T07:18:20.019Z,5.65
2022-08-12T07:23:24.415Z,4.75
2022-08-12T07:28:32.616Z,5.18
2022-08-12T07:38:43.904Z,4.53
2022-08-12T07:43:51.560Z,4.65
2022-08-12T07:48:57.617Z,5.10
2022-08-12T07:54:03.058Z,3.70
2022-08-12T07:59:09.540Z,4.12
2022-08-12T08:04:45.655Z,3.95
2022-08-12T08:09:49.612Z,4.28
2022-08-12T08:15:03.810Z,3.30
2022-08-12T08:20:10.383Z,3.30
2022-08-12T08:25:34.861Z,2.97
2022-08-12T08:30:42.452Z,3.37
2022-08-12T08:35:48.392Z,2.90
2022-08-12T08:41:09.666Z,3.37
2022-08-12T08:46:14.748Z,2.92
2022-08-12T08:51:18.473Z,2.70
2022-08-12T08:56:22.565Z,2.60
2022-08-12T09:01:37.714Z,2.95
2022-08-12T09:06:53.426Z,3.58
2022-08-12T09:12:27.368Z,2.50
2022-08-12T09:17:42.081Z,2.40
2022-08-12T09:22:48.956Z,2.70
2022-08-12T09:28:03.493Z,2.33
2022-08-12T09:33:18.495Z,2.62
2022-08-12T09:38:28.094Z,2.58
2022-08-12T09:43:53.986Z,2.40
2022-08-12T09:49:13.166Z,2.12
2022-08-12T09:54:32.671Z,2.53
2022-08-12T10:00:15.435Z,2.65
2022-08-12T10:05:04.701Z,2.25
2022-08-12T10:10:22.318Z,2.65
2022-08-12T10:16:03.042Z,2.40
2022-08-12T10:20:54.056Z,2.03
2022-08-12T10:26:35.408Z,2.20
2022-08-12T10:32:19.493Z,1.92
2022-08-12T10:37:22.976Z,2.20
2022-08-12T10:43:02.947Z,2.25
2022-08-12T10:48:19.898Z,2.00
2022-08-12T10:53:43.924Z,2.22
2022-08-12T10:58:48.389Z,2.05
2022-08-12T11:04:22.639Z,2.47
2022-08-12T11:09:51.395Z,2.07
2022-08-12T11:14:49.309Z,1.90
2022-08-12T11:19:54.852Z,1.80
2022-08-12T11:24:59.958Z,1.85
2022-08-12T11:30:06.445Z,2.60
2022-08-12T11:35:11.800Z,2.10
2022-08-12T11:40:19.978Z,1.90
2022-08-12T11:45:23.692Z,1.95
2022-08-12T11:50:32.189Z,1.95
2022-08-12T11:55:46.723Z,2.15
2022-08-12T12:06:16.806Z,2.12
2022-08-12T12:11:23.145Z,1.92
2022-08-12T12:16:27.044Z,2.10
2022-08-12T12:27:00.527Z,2.00
2022-08-12T12:32:09.070Z,2.42
2022-08-12T12:37:16.365Z,1.95
2022-08-12T12:42:43.121Z,1.75
2022-08-12T12:47:56.313Z,2.33
2022-08-12T12:53:00.970Z,2.50
2022-08-12T12:58:11.243Z,1.70
2022-08-12T13:03:19.472Z,1.92
2022-08-12T13:08:28.281Z,2.20
2022-08-12T13:14:07.632Z,1.85
2022-08-12T13:19:07.687Z,2.00
2022-08-12T13:24:12.057Z,1.90
2022-08-12T13:29:17.303Z,2.00
2022-08-12T13:34:28.568Z,2.00
2022-08-12T13:39:38.138Z,2.12
2022-08-12T13:44:43.767Z,2.08
2022-08-12T13:49:54.542Z,1.98
2022-08-12T13:54:59.703Z,2.00
2022-08-12T14:00:07.259Z,1.83
2022-08-12T14:05:31.417Z,1.80
2022-08-12T14:10:51.059Z,2.40
2022-08-12T14:15:57.605Z,2.30
2022-08-12T14:21:04.166Z,2.00
2022-08-12T14:26:12.105Z,2.05
2022-08-12T14:31:18.625Z,2.35
2022-08-12T14:36:24.885Z,2.55
2022-08-12T14:41:36.909Z,2.47
2022-08-12T14:46:55.775Z,2.20
2022-08-12T14:52:43.399Z,2.25
2022-08-12T14:58:00.514Z,1.80
2022-08-12T15:02:48.738Z,2.25
2022-08-12T15:08:01.793Z,1.97
2022-08-12T15:13:09.620Z,2.05
2022-08-12T15:18:21.171Z,1.95
2022-08-12T15:23:28.918Z,1.98
2022-08-12T15:28:37.004Z,2.37
2022-08-12T15:33:46.128Z,2.00
2022-08-12T15:38:50.167Z,2.10
2022-08-12T15:44:36.975Z,1.90
2022-08-12T15:49:22.764Z,1.73
2022-08-12T15:54:33.694Z,2.17
2022-08-12T16:00:03.669Z,1.92
2022-08-12T16:06:10.347Z,1.90
2022-08-12T16:10:30.968Z,2.35
2022-08-12T16:15:37.855Z,2.15
2022-08-12T16:20:47.565Z,2.30
2022-08-12T16:26:06.178Z,2.45
2022-08-12T16:31:22.730Z,1.80
2022-08-12T16:36:29.778Z,2.45
2022-08-12T16:41:39.747Z,3.40
2022-08-12T16:46:58.090Z,2.10
2022-08-12T16:52:03.572Z,1.58
2022-08-12T16:57:09.708Z,2.50
2022-08-12T17:02:31.270Z,2.28
2022-08-12T17:07:43.582Z,2.35
2022-08-12T17:12:48.563Z,2.08
2022-08-12T17:18:39.222Z,4.00
2022-08-12T17:23:20.250Z,3.67
2022-08-12T17:28:24.164Z,3.08
2022-08-12T17:33:33.295Z,2.50
2022-08-12T17:38:40.589Z,2.78
2022-08-12T17:43:56.294Z,2.15
2022-08-12T17:49:18.904Z,2.12
2022-08-12T17:54:30.344Z,1.83
2022-08-12T17:59:48.617Z,1.55
2022-08-12T18:05:05.731Z,2.30
2022-08-12T18:10:38.672Z,1.62
2022-08-12T18:16:06.191Z,2.97
2022-08-12T18:21:11.013Z,3.80
2022-08-12T18:26:23.409Z,2.53
2022-08-12T18:31:44.003Z,3.65
2022-08-12T18:36:55.873Z,2.40
2022-08-12T18:42:01.095Z,1.98
2022-08-12T18:47:09.593Z,1.87
2022-08-12T18:52:17.737Z,1.67
2022-08-12T18:58:07.399Z,2.17
2022-08-12T19:02:50.506Z,2.50
2022-08-12T19:08:02.134Z,1.90
2022-08-12T19:13:25.473Z,1.77
2022-08-12T19:18:40.321Z,2.03
2022-08-12T19:24:04.609Z,1.60
2022-08-12T19:29:10.760Z,1.70
2022-08-12T19:40:07.947Z,2.10
2022-08-12T19:45:12.302Z,2.17
2022-08-12T19:50:20.353Z,1.85
2022-08-12T19:55:27.185Z,1.90
2022-08-12T20:00:34.496Z,2.17
2022-08-12T20:06:06.528Z,1.90
2022-08-12T20:12:13.335Z,1.80
2022-08-12T20:16:51.652Z,1.80
2022-08-12T20:21:54.914Z,1.80
2022-08-12T20:26:58.798Z,2.35
2022-08-12T20:32:04.380Z,2.53
2022-08-12T20:37:09.519Z,2.53
2022-08-12T20:42:14.070Z,2.25
2022-08-12T20:47:20.542Z,2.10
2022-08-12T20:52:30.049Z,1.70
2022-08-12T20:57:38.407Z,1.75
2022-08-12T21:03:21.132Z,1.85
2022-08-12T21:08:27.310Z,2.12
2022-08-12T21:13:38.819Z,1.80
2022-08-12T21:18:50.799Z,2.22
2022-08-12T21:23:56.440Z,1.73
2022-08-12T21:29:04.220Z,1.92
2022-08-12T21:34:09.723Z,2.10
2022-08-12T21:39:20.365Z,1.65
2022-08-12T21:45:44.467Z,1.92
2022-08-12T21:50:03.914Z,1.70
2022-08-12T21:55:18.249Z,1.83
2022-08-12T22:00:32.303Z,2.08
2022-08-12T22:05:56.522Z,1.80
2022-08-12T22:11:00.231Z,2.03
2022-08-12T22:16:05.668Z,2.10
2022-08-12T22:21:11.531Z,1.73
2022-08-12T22:26:36.906Z,1.65
2022-08-12T22:31:40.226Z,2.25
2022-08-12T22:36:45.579Z,2.50
2022-08-12T22:42:06.940Z,2.08
2022-08-12T22:47:49.762Z,2.40
2022-08-12T22:52:53.461Z,2.78
2022-08-12T22:57:58.187Z,1.65
2022-08-12T23:03:03.240Z,1.85
2022-08-12T23:08:13.657Z,2.65
2022-08-12T23:13:42.962Z,1.98
2022-08-12T23:18:49.945Z,1.80
2022-08-12T23:24:10.253Z,1.90
2022-08-12T23:29:30.138Z,1.70
2022-08-12T23:34:47.799Z,1.98
2022-08-12T23:40:14.205Z,1.77
2022-08-12T23:45:31.797Z,2.17
2022-08-12T23:50:37.842Z,2.28
2022-08-12T23:55:45.489Z,2.58
